< < Back
Terminal Aerodrome Forecast


Current Version              Previous Versions:   1  2  3  4  5  6  7  8  9  

Terminal Aerodrome Forecast

170
FTUS42 KILM 301300 AAA
TAFILM
TAF AMD
KILM 301309Z 3013/3112 02010KT P6SM BKN015
      TEMPO 3013/3014 BKN009
     FM301430 02009KT P6SM SCT020 BKN250
     FM302300 03005KT P6SM SCT035=



Latest METAR

565
SAUS70 KWBC 310700 RRF
MTRILM
METAR KILM 310653Z AUTO 03008KT 10SM SCT045 11/10 A2992 RMK AO2 SLP129
T01110100


USA.gov is the U.S. government's official web portal to all federal, state and local government web resources and services.